Koudougou Airport


Codes: DFCK/
Name: Koudougou Airport
City: Koudougou
Country: Burkina Faso
Elevation: 1001 ft.

Photos at Koudougou Airport


   Photos courtesy of SpottingLog. You can add your own sightings and photos by signing up for a free trial today.



No photos found.

Weather at Koudougou Airport


Time (UTC)DescriptionTempratureWindCloud coverageVisibilityPressureHumidity
19-Apr-2024 03:00Overcast Clouds30°C4 mph, E100%10000m1007hPa10%
19-Apr-2024 06:00Overcast Clouds30°C4 mph, NE97%10000m1008hPa10%
19-Apr-2024 09:00Overcast Clouds34°C9 mph, NE95%10000m1009hPa7%
19-Apr-2024 12:00Overcast Clouds41°C9 mph, E92%10000m1008hPa5%
19-Apr-2024 15:00Overcast Clouds42°C7 mph, E100%10000m1005hPa5%
19-Apr-2024 18:00Overcast Clouds39°C4 mph, NE94%10000m1004hPa6%
19-Apr-2024 21:00Few Clouds35°C4 mph, E12%10000m1006hPa7%
20-Apr-2024 00:00Clear Sky32°C4 mph, S8%10000m1006hPa9%
20-Apr-2024 03:00Clear Sky30°C4 mph, SW6%10000m1005hPa11%
20-Apr-2024 06:00Clear Sky28°C2 mph, N7%10000m1007hPa12%
20-Apr-2024 09:00Few Clouds37°C9 mph, S24%10000m1008hPa12%
20-Apr-2024 12:00Scattered Clouds41°C9 mph, SW25%10000m1006hPa13%
20-Apr-2024 15:00Overcast Clouds43°C4 mph, SW98%10000m1002hPa11%
20-Apr-2024 18:00Broken Clouds40°C2 mph, SW71%10000m1002hPa13%
20-Apr-2024 21:00Broken Clouds36°C4 mph, SW68%10000m1003hPa17%
21-Apr-2024 00:00Broken Clouds34°C4 mph, NW58%10000m1003hPa19%
21-Apr-2024 03:00Scattered Clouds33°C7 mph, S47%10000m1003hPa26%
21-Apr-2024 06:00Scattered Clouds31°C16 mph, S50%10000m1005hPa43%
21-Apr-2024 09:00Clear Sky35°C16 mph, SW8%10000m1006hPa38%
21-Apr-2024 12:00Clear Sky40°C16 mph, SW10%10000m1004hPa24%
21-Apr-2024 15:00Light Rain40°C16 mph, SW46%10000m1001hPa23%
21-Apr-2024 18:00Light Rain34°C4 mph, SE66%10000m1002hPa34%
21-Apr-2024 21:00Light Rain33°C13 mph, SW46%10000m1005hPa39%
22-Apr-2024 00:00Scattered Clouds29°C22 mph, S49%10000m1006hPa56%
22-Apr-2024 03:00Overcast Clouds29°C13 mph, SW100%10000m1005hPa50%
22-Apr-2024 06:00Overcast Clouds29°C16 mph, SW100%10000m1006hPa55%
22-Apr-2024 09:00Overcast Clouds32°C13 mph, SW97%10000m1008hPa47%
22-Apr-2024 12:00Overcast Clouds35°C13 mph, SW95%10000m1007hPa36%
22-Apr-2024 15:00Overcast Clouds38°C9 mph, SW92%10000m1004hPa27%
22-Apr-2024 18:00Overcast Clouds35°C16 mph, SW93%10000m1004hPa33%
22-Apr-2024 21:00Scattered Clouds32°C9 mph, S29%10000m1005hPa34%
23-Apr-2024 00:00Broken Clouds32°C7 mph, SW58%10000m1006hPa33%
23-Apr-2024 03:00Overcast Clouds31°C11 mph, S100%10000m1005hPa43%
23-Apr-2024 06:00Overcast Clouds31°C13 mph, S99%10000m1007hPa49%
23-Apr-2024 09:00Broken Clouds33°C16 mph, SW58%10000m1009hPa44%
23-Apr-2024 12:00Broken Clouds36°C16 mph, SW60%10000m1008hPa37%
23-Apr-2024 15:00Broken Clouds37°C13 mph, S79%10000m1005hPa32%
23-Apr-2024 18:00Scattered Clouds36°C7 mph, S46%10000m1005hPa30%
23-Apr-2024 21:00Light Rain34°C4 mph, E88%10000m1007hPa36%
24-Apr-2024 00:00Broken Clouds31°C11 mph, S80%10000m1007hPa47%